Aktualne dane pomiarowe

Uwaga, wersja testowa! Automatyczne pobieranie danych za pomocą narzędzi lub skryptów to umożliwiających jest zabronione.

Dane meteo z obszaru Polski uzyskane na podstawie depesz SYNOP pobieranych co godzinę z NWS. Najedź myszką na symbol przedstawiony w tabeli, aby uzyskać informacje co do jego znaczenia. Prosimy pamiętać, że to testowa wersja strony, która jeszcze nie jest ukończona. Stworzono również jest krótki FAQ dotyczący korzystania z tej podstrony Anomalie temperatury w chwili obecnej odniesione są do okresu referencyjnego 1951-2016. Okres ten będzie później zmieniony na 1981-2010. Kliknij ikonę aby pobrać plik CSV. Kliknij ikonę aby wygenerować mapę synoptyczną dla danego terminu.

Wybierz Datę:    

        

Płock (12360)

Dane terminowe dla wybranej stacji. Kliknij datę, aby otrzymać dane z tego terminu dla wszystkich stacji.

TemperaturaZachmurzenieWiatrCiśnienieOpadyPogoda
 Data t td wb tx tn tg rh  Nt Nl Cl Cm Ch ws wd g1 g2 wx mslp ppp ch 24h 12h t ww ww w1 w2  
2019-07-07 23:00:00 13.3 10.7 11.6--- 8426.0--5wx--51008.9 995.9 0.6---------
2019-07-07 22:00:00 13.5 10.8 11.7--- 8435.0--4wx--41008.9 995.9 1.0---wx-----
2019-07-07 21:00:00 13.8 10.4 11.6--- 8035.0--4wx-1041008.6 995.6 1.6---wx-----
2019-07-07 20:00:00 14.0 10.2 11.5--- 7840.0--3wx-1031008.3 995.3 1.7---wx-----
2019-07-07 19:00:00 15.8 8.5 11.4--- 6250.0--4wx---1007.8 994.9 1.3---------
2019-07-07 18:00:00 16.7 7.9 11.6 20.0 14.2- 5640.0--6wx---1006.8 994.0 0.3---------
2019-07-07 17:00:00 17.5 7.5 11.8--- 5240.0--6wx12--1006.4 993.6 -0.2---------
2019-07-07 16:00:00 17.9 7.3 11.9--- 5040.0--6wx11--1006.4 993.6 0.0---------
2019-07-07 15:00:00 17.9 7.3 11.9--- 5035.0--7wx-1471006.5 993.7 0.4---------
2019-07-07 14:00:00 18.5 6.7 11.9--- 4635.0--8wx-1381006.5 993.8 0.9---------
2019-07-07 13:00:00 19.2 7.0 12.4--- 4530.0--8wx14--1006.3 993.6 1.0---------
2019-07-07 12:00:00 18.3 6.5 11.7--- 4635.0--7wx121471006.0 993.3 0.8- 0.06------
2019-07-07 11:00:00 19.8 6.2 12.3--- 4130.0--7wx14--1005.6 992.9 0.6---------
2019-07-07 10:00:00 18.1 5.6 11.3--- 4430.0--6wx111461005.3 992.6 0.5---------
2019-07-07 09:00:00 18.5 8.2 12.6--- 5135.0--6wx121261005.2 992.5 0.4---------
2019-07-07 08:00:00 16.3 8.3 11.6--- 5930.0--6wx-1261005.1 992.3 0.6---------
2019-07-07 07:00:00 15.5 8.2 11.2--- 6225.0--6wx--61005.0 992.1 0.6---------
2019-07-07 06:00:00 14.3 10.3 11.7 16.7 13.8 14 7730.0--4wx-1141005.0 992.1 0.7 1.4 0.812----- 1.6
2019-07-07 05:00:00 14.8 13.0 13.5--- 8915.0--5wx--51004.6 991.7 0.1---------
2019-07-07 04:00:00 15.2 13.6 14.1--- 9018.0--5wx101051004.4 991.5 -0.5---------
2019-07-07 03:00:00 15.8 14.5 14.9--- 9217.0--6wx111161004.2 991.4 -0.8---wx-----
2019-07-07 02:00:00 15.1 14.3 14.5--- 9511.0--4wx--41004.5 991.6 -1.2---wx-----
2019-07-07 01:00:00 15.2 14.4 14.6--- 9510.0--4wx---1004.9 992.0 -0.6---wx-----
2019-07-07 00:00:00 15.2 14.2 14.5--- 949.0--3wx--31005.1 992.2 -0.6- 0.76wx-----
2019-07-06 23:00:00 15.9 14.1 14.6--- 8913.0--4wx--41005.6 992.8 -0.3---wx-----
2019-07-06 22:00:00 15.6 14.3 14.7--- 9213.0--3wx--31005.5 992.6 -0.7---------
2019-07-06 21:00:00 15.7 14.4 14.8--- 9212.0--2wx--21005.7 992.8 -0.7---wx-----
2019-07-06 20:00:00 15.8 13.8 14.4--- 889.0--1wx--11006.0 993.1 -0.7---wx-----
2019-07-06 19:00:00 16.4 13.9 14.7--- 8524.0--1wx--11006.1 993.3 -0.6---wx-----
2019-07-06 18:00:00 16.7 13.6 14.6 19.6 14.9- 8230.0--1wx--11006.3 993.5 -1.2- 0.612wx-----
2019-07-06 17:00:00 17.4 13.9 15.0--- 8017.0--1wx--11006.6 993.8 -1.7---wx-----
2019-07-06 16:00:00 17.6 13.9 15.1--- 7945.0--1wx--11006.7 993.9 -1.7---wx-----
2019-07-06 15:00:00 17.6 14.3 15.3--- 8130.0--3wx--31007.5 994.7 -0.9---wx-----
2019-07-06 14:00:00 17.2 12.5 14.1--- 7418.0--5wx--51008.3 995.5 -0.5---wx-----
2019-07-06 13:00:00 18.1 12.3 14.4--- 6935.0--5wx--51008.4 995.6 -0.6---wx-----
2019-07-06 12:00:00 18.6 11.4 14.1--- 6345.0--4wx-1141008.4 995.6 -1.1--6wx-----
2019-07-06 11:00:00 19.2 11.7 14.5--- 6240.0--5wx--51008.7 996.0 -0.8---------
2019-07-06 10:00:00 17.9 11.7 14.0--- 6745.0--5wx--51009.0 996.2 -1.1---------
2019-07-06 09:00:00 17.0 12.3 13.9--- 7440.0--4wx--41009.5 996.7 -0.8---------
2019-07-06 08:00:00 17.5 12.2 14.1--- 7140.0--5wx--51009.6 996.8 -0.7---------
2019-07-06 07:00:00 16.7 11.6 13.4--- 7235.0--4wx--41010.2 997.3 -0.5---------
2019-07-06 06:00:00 14.9 12.6 13.3 18.2 11.2 10 8630.0--4wx--41010.4 997.5 -0.4- 0.012----- 4.6
2019-07-06 05:00:00 14.0 12.9 13.2--- 9314.0--4wx--41010.5 997.5 -0.6---------
2019-07-06 04:00:00 12.0 11.2 11.4--- 9511.0--1wx--11010.9 997.8 -0.4---------
2019-07-06 03:00:00 11.5 8.4 9.5--- 8150.0--2wx---1011.0 997.9 -0.6---------
2019-07-06 02:00:00 11.8 8.6 9.7--- 8150.0--2wx--21011.2 998.1 -0.1---------
2019-07-06 01:00:00 12.5 10.2 10.9--- 8645.0--2wx--21011.3 998.2 0.3---------
2019-07-06 00:00:00 12.9 11.3 11.8--- 9035.0--2wx-1221011.6 998.5 0.6- 0.06------
1.9 ms

 

Print Friendly, PDF & Email